createdAt,value
2023-05-13T00:00:48.370Z,56.63
2023-05-13T00:05:00.054Z,56.84
2023-05-13T00:09:11.748Z,57.18
2023-05-13T00:13:23.444Z,56.96
2023-05-13T00:17:35.224Z,57.21
2023-05-13T00:21:50.059Z,57.32
2023-05-13T00:26:01.841Z,57.48
2023-05-13T00:30:13.570Z,57.68
2023-05-13T00:34:25.140Z,57.83
2023-05-13T00:38:37.203Z,58.00
2023-05-13T00:42:49.536Z,58.08
2023-05-13T00:47:01.193Z,58.26
2023-05-13T00:51:12.922Z,58.21
2023-05-13T00:55:24.719Z,58.31
2023-05-13T00:59:36.368Z,58.72
2023-05-13T01:04:36.661Z,58.59
2023-05-13T01:09:03.481Z,59.00
2023-05-13T01:13:23.746Z,58.75
2023-05-13T01:18:13.734Z,58.80
2023-05-13T01:22:25.970Z,58.74
2023-05-13T01:26:37.661Z,58.90
2023-05-13T01:30:49.647Z,59.24
2023-05-13T01:35:02.844Z,59.41
2023-05-13T01:39:17.849Z,59.43
2023-05-13T01:43:30.375Z,59.38
2023-05-13T01:47:42.218Z,59.93
2023-05-13T01:51:54.362Z,60.13
2023-05-13T01:56:10.467Z,60.32
2023-05-13T02:00:22.861Z,60.49
2023-05-13T02:04:34.749Z,60.44
2023-05-13T02:08:47.149Z,60.75
2023-05-13T02:12:58.860Z,61.12
2023-05-13T02:17:10.577Z,61.06
2023-05-13T02:21:22.285Z,61.51
2023-05-13T02:25:34.348Z,62.13
2023-05-13T02:29:46.158Z,62.44
2023-05-13T02:33:57.925Z,62.52
2023-05-13T02:38:10.742Z,62.87
2023-05-13T02:42:22.659Z,62.98
2023-05-13T02:46:34.565Z,63.31
2023-05-13T02:50:46.403Z,63.42
2023-05-13T02:54:58.217Z,64.11
2023-05-13T02:59:10.082Z,64.18
2023-05-13T03:03:22.079Z,64.58
2023-05-13T03:07:34.371Z,64.91
2023-05-13T03:11:46.146Z,65.29
2023-05-13T03:15:57.933Z,65.30
2023-05-13T03:20:10.534Z,65.68
2023-05-13T03:24:22.391Z,65.67
2023-05-13T03:28:34.446Z,65.69
2023-05-13T03:32:46.867Z,66.27
2023-05-13T03:36:59.133Z,66.41
2023-05-13T03:41:12.776Z,66.74
2023-05-13T03:45:24.656Z,67.43
2023-05-13T03:49:39.951Z,67.39
2023-05-13T03:53:52.009Z,67.46
2023-05-13T03:58:17.100Z,67.82
2023-05-13T04:02:29.514Z,68.41
2023-05-13T04:06:41.266Z,68.35
2023-05-13T04:10:54.514Z,68.70
2023-05-13T04:15:06.563Z,68.57
2023-05-13T04:19:18.128Z,68.79
2023-05-13T04:23:29.779Z,68.64
2023-05-13T04:27:41.850Z,69.29
2023-05-13T04:32:01.839Z,68.99
2023-05-13T04:36:15.091Z,69.02
2023-05-13T04:40:27.876Z,69.35
2023-05-13T04:44:43.382Z,69.06
2023-05-13T04:48:55.335Z,68.96
2023-05-13T04:53:07.293Z,67.19
2023-05-13T04:57:19.021Z,66.22
2023-05-13T05:01:31.299Z,66.39
2023-05-13T05:05:43.176Z,66.94
2023-05-13T05:09:56.388Z,66.78
2023-05-13T05:14:09.292Z,64.81
2023-05-13T05:18:21.562Z,62.08
2023-05-13T05:22:36.213Z,59.23
2023-05-13T05:26:48.120Z,57.44
2023-05-13T05:31:01.966Z,56.77
2023-05-13T05:35:17.033Z,55.67
2023-05-13T05:39:28.835Z,53.14
2023-05-13T05:43:40.576Z,51.71
2023-05-13T05:47:55.185Z,50.36
2023-05-13T05:52:07.218Z,50.45
2023-05-13T05:56:19.799Z,48.88
2023-05-13T06:00:32.214Z,47.73
2023-05-13T06:04:44.258Z,46.18
2023-05-13T06:08:56.102Z,44.25
2023-05-13T06:13:07.828Z,42.89
2023-05-13T06:17:19.557Z,41.92
2023-05-13T06:21:32.103Z,41.32
2023-05-13T06:25:43.746Z,39.89
2023-05-13T06:29:55.579Z,40.92
2023-05-13T06:34:07.376Z,40.85
2023-05-13T06:38:19.120Z,40.65
2023-05-13T06:42:32.768Z,39.69
2023-05-13T06:46:46.558Z,38.27
2023-05-13T06:50:58.249Z,37.58
2023-05-13T06:55:10.590Z,36.41
2023-05-13T06:59:22.890Z,35.30
2023-05-13T07:03:34.581Z,34.76
2023-05-13T07:07:46.315Z,33.98
2023-05-13T07:11:57.895Z,33.87
2023-05-13T07:16:09.522Z,33.01
2023-05-13T07:20:22.786Z,33.72
2023-05-13T07:24:34.631Z,34.43
2023-05-13T07:28:46.272Z,34.27
2023-05-13T07:32:57.962Z,34.14
2023-05-13T07:37:09.614Z,32.86
2023-05-13T07:41:21.593Z,32.57
2023-05-13T07:45:33.255Z,31.49
2023-05-13T07:49:44.858Z,31.66
2023-05-13T07:53:57.066Z,30.88
2023-05-13T07:58:08.641Z,29.30
2023-05-13T08:02:20.376Z,29.18
2023-05-13T08:06:32.795Z,27.74
2023-05-13T08:10:44.720Z,27.37
2023-05-13T08:14:56.371Z,27.62
2023-05-13T08:19:08.105Z,26.44
2023-05-13T08:23:19.970Z,25.84
2023-05-13T08:27:31.650Z,24.54
2023-05-13T08:31:43.355Z,24.70
2023-05-13T08:35:54.900Z,24.65
2023-05-13T08:40:07.326Z,24.98
2023-05-13T08:44:22.711Z,23.46
2023-05-13T08:48:34.947Z,23.18
2023-05-13T08:52:55.762Z,22.90
2023-05-13T08:57:07.495Z,22.92
2023-05-13T09:01:19.313Z,23.41
2023-05-13T09:05:31.999Z,22.62
2023-05-13T09:09:44.652Z,22.74
2023-05-13T09:13:58.287Z,21.94
2023-05-13T09:18:10.066Z,21.36
2023-05-13T09:22:22.804Z,20.19
2023-05-13T09:26:34.512Z,20.49
2023-05-13T09:30:54.760Z,19.98
2023-05-13T09:35:19.197Z,19.09
2023-05-13T09:39:39.373Z,20.31
2023-05-13T09:43:51.120Z,19.89
2023-05-13T09:48:04.378Z,20.14
2023-05-13T09:52:17.133Z,20.10
2023-05-13T09:56:30.925Z,20.14
2023-05-13T10:00:43.954Z,20.12
2023-05-13T10:04:56.913Z,20.58
2023-05-13T10:09:10.041Z,20.40
2023-05-13T10:13:24.224Z,21.09
2023-05-13T10:17:36.566Z,20.98
2023-05-13T10:21:50.458Z,20.14
2023-05-13T10:26:02.922Z,20.69
2023-05-13T10:30:16.202Z,20.42
2023-05-13T10:34:59.100Z,20.30
2023-05-13T10:39:27.430Z,20.46
2023-05-13T10:43:39.311Z,21.30
2023-05-13T10:47:51.706Z,21.15
2023-05-13T10:52:14.349Z,21.21
2023-05-13T10:56:28.324Z,20.93
2023-05-13T11:00:42.704Z,20.53
2023-05-13T11:04:58.745Z,19.87
2023-05-13T11:09:20.359Z,19.41
2023-05-13T11:13:38.239Z,20.46
2023-05-13T11:17:53.400Z,20.67
2023-05-13T11:22:05.102Z,20.91
2023-05-13T11:26:17.167Z,20.32
2023-05-13T11:30:29.002Z,20.03
2023-05-13T11:34:50.781Z,20.15
2023-05-13T11:39:07.139Z,20.04
2023-05-13T11:43:21.735Z,19.40
2023-05-13T11:47:33.340Z,19.57
2023-05-13T11:51:44.930Z,19.70
2023-05-13T11:55:57.358Z,19.57
2023-05-13T12:00:10.388Z,19.83
2023-05-13T12:04:28.299Z,20.64
2023-05-13T12:08:44.548Z,21.74
2023-05-13T12:12:56.887Z,22.45
2023-05-13T12:17:08.512Z,22.36
2023-05-13T12:21:21.284Z,22.53
2023-05-13T12:25:47.580Z,22.56
2023-05-13T12:29:59.109Z,22.96
2023-05-13T12:34:10.728Z,23.14
2023-05-13T12:38:24.571Z,23.22
2023-05-13T12:42:36.404Z,22.89
2023-05-13T12:46:55.670Z,23.16
2023-05-13T12:51:07.683Z,23.20
2023-05-13T12:55:19.611Z,23.04
2023-05-13T12:59:31.390Z,22.23
2023-05-13T13:03:43.500Z,22.39
2023-05-13T13:07:55.272Z,22.00
2023-05-13T13:12:07.205Z,22.27
2023-05-13T13:16:19.051Z,22.87
2023-05-13T13:20:30.653Z,22.18
2023-05-13T13:24:42.288Z,22.60
2023-05-13T13:28:53.962Z,23.00
2023-05-13T13:33:05.634Z,23.24
2023-05-13T13:37:17.260Z,22.58
2023-05-13T13:41:28.803Z,23.28
2023-05-13T13:45:40.537Z,23.33
2023-05-13T13:49:52.277Z,22.99
2023-05-13T13:54:05.228Z,23.33
2023-05-13T13:58:16.766Z,23.74
2023-05-13T14:02:28.535Z,24.29
2023-05-13T14:06:40.687Z,24.64
2023-05-13T14:10:52.454Z,25.49
2023-05-13T14:15:04.453Z,25.96
2023-05-13T14:19:18.056Z,25.69
2023-05-13T14:23:29.859Z,25.90
2023-05-13T14:27:41.468Z,25.46
2023-05-13T14:31:53.298Z,25.45
2023-05-13T14:36:06.230Z,25.16
2023-05-13T14:40:17.772Z,25.14
2023-05-13T14:44:29.364Z,25.45
2023-05-13T14:48:41.250Z,25.78
2023-05-13T14:52:52.915Z,25.82
2023-05-13T14:57:05.977Z,25.66
2023-05-13T15:01:17.531Z,26.03
2023-05-13T15:05:29.140Z,26.13
2023-05-13T15:09:40.742Z,26.32
2023-05-13T15:13:54.477Z,27.01
2023-05-13T15:18:06.320Z,26.84
2023-05-13T15:22:18.204Z,27.26
2023-05-13T15:26:29.798Z,26.78
2023-05-13T15:30:42.642Z,26.96
2023-05-13T15:34:54.399Z,26.63
2023-05-13T15:39:06.860Z,26.64
2023-05-13T15:43:18.692Z,26.78
2023-05-13T15:47:30.451Z,27.30
2023-05-13T15:51:42.607Z,27.25
2023-05-13T15:55:55.467Z,27.69
2023-05-13T16:00:07.707Z,27.47
2023-05-13T16:04:19.342Z,27.04
2023-05-13T16:08:31.119Z,27.73
2023-05-13T16:12:43.031Z,27.41
2023-05-13T16:16:54.947Z,27.93
2023-05-13T16:21:09.365Z,28.28
2023-05-13T16:25:21.669Z,28.57
2023-05-13T16:29:34.743Z,28.36
2023-05-13T16:33:46.417Z,28.59
2023-05-13T16:37:58.059Z,28.99
2023-05-13T16:42:09.965Z,29.03
2023-05-13T16:46:21.585Z,29.34
2023-05-13T16:50:33.170Z,29.41
2023-05-13T16:54:44.801Z,29.48
2023-05-13T16:58:56.361Z,29.68
2023-05-13T17:03:08.018Z,29.65
2023-05-13T17:07:19.697Z,29.79
2023-05-13T17:16:35.329Z,30.01
2023-05-13T17:20:46.996Z,30.22
2023-05-13T17:24:58.689Z,30.25
2023-05-13T17:29:10.282Z,30.00
2023-05-13T17:33:23.106Z,30.03
2023-05-13T17:38:24.912Z,30.37
2023-05-13T17:42:36.914Z,30.63
2023-05-13T17:46:48.478Z,30.86
2023-05-13T17:51:00.175Z,31.23
2023-05-13T17:55:11.827Z,31.16
2023-05-13T17:59:23.542Z,31.33
2023-05-13T18:03:35.282Z,31.47
2023-05-13T18:07:47.381Z,31.40
2023-05-13T18:11:59.147Z,31.57
2023-05-13T18:16:11.635Z,31.72
2023-05-13T18:20:23.612Z,31.72
2023-05-13T18:24:36.003Z,31.70
2023-05-13T18:28:47.747Z,31.72
2023-05-13T18:32:59.675Z,31.98
2023-05-13T18:37:11.448Z,32.60
2023-05-13T18:41:23.161Z,32.92
2023-05-13T18:45:34.841Z,32.94
2023-05-13T18:49:46.574Z,33.25
2023-05-13T18:53:58.839Z,33.60
2023-05-13T18:58:10.658Z,34.18
2023-05-13T19:02:22.581Z,34.22
2023-05-13T19:06:38.079Z,34.70
2023-05-13T19:10:49.832Z,35.24
2023-05-13T19:15:01.608Z,36.27
2023-05-13T19:19:13.298Z,36.68
2023-05-13T19:23:25.072Z,37.48
2023-05-13T19:27:37.506Z,38.68
2023-05-13T19:31:50.446Z,39.12
2023-05-13T19:36:04.205Z,40.14
2023-05-13T19:40:16.359Z,40.14
2023-05-13T19:44:28.686Z,40.60
2023-05-13T19:48:43.522Z,41.05
2023-05-13T19:52:55.558Z,41.50
2023-05-13T19:57:07.724Z,42.28
2023-05-13T20:01:19.619Z,42.44
2023-05-13T20:05:31.443Z,42.96
2023-05-13T20:09:43.403Z,43.57
2023-05-13T20:13:55.712Z,44.27
2023-05-13T20:18:07.408Z,44.54
2023-05-13T20:22:44.341Z,44.88
2023-05-13T20:26:56.047Z,44.77
2023-05-13T20:31:07.713Z,45.22
2023-05-13T20:35:19.500Z,45.67
2023-05-13T20:39:31.506Z,45.78
2023-05-13T20:43:43.106Z,46.46
2023-05-13T20:47:59.252Z,46.51
2023-05-13T20:52:11.446Z,46.83
2023-05-13T20:56:23.135Z,47.21
2023-05-13T21:00:34.796Z,47.27
2023-05-13T21:04:46.516Z,47.85
2023-05-13T21:08:58.290Z,48.31
2023-05-13T21:13:10.548Z,48.50
2023-05-13T21:17:23.841Z,48.75
2023-05-13T21:21:35.437Z,49.20
2023-05-13T21:25:47.160Z,49.73
2023-05-13T21:29:58.847Z,50.02
2023-05-13T21:34:10.577Z,50.43
2023-05-13T21:38:22.431Z,50.83
2023-05-13T21:42:34.066Z,51.15
2023-05-13T21:46:45.820Z,51.30
2023-05-13T21:50:57.878Z,51.49
2023-05-13T21:55:09.913Z,51.87
2023-05-13T21:59:21.595Z,51.94
2023-05-13T22:03:33.237Z,52.12
2023-05-13T22:07:45.003Z,52.67
2023-05-13T22:11:56.764Z,52.81
2023-05-13T22:16:08.725Z,53.10
2023-05-13T22:20:20.949Z,53.35
2023-05-13T22:24:32.680Z,53.89
2023-05-13T22:28:46.408Z,54.62
2023-05-13T22:32:58.253Z,54.91
2023-05-13T22:37:10.083Z,55.09
2023-05-13T22:41:23.809Z,55.54
2023-05-13T22:45:36.947Z,55.50
2023-05-13T22:49:48.648Z,56.37
2023-05-13T22:54:00.249Z,56.46
2023-05-13T22:58:11.842Z,56.96
2023-05-13T23:02:24.236Z,57.56
2023-05-13T23:06:36.527Z,58.07
2023-05-13T23:10:48.098Z,58.41
2023-05-13T23:14:59.729Z,58.31
2023-05-13T23:19:11.448Z,58.43
2023-05-13T23:23:23.403Z,59.15
2023-05-13T23:27:35.353Z,59.51
2023-05-13T23:31:46.958Z,59.16
2023-05-13T23:35:58.535Z,59.25
2023-05-13T23:40:10.388Z,59.60
2023-05-13T23:44:21.942Z,59.75
2023-05-13T23:48:33.585Z,60.24
2023-05-13T23:52:45.119Z,60.58
2023-05-13T23:56:56.655Z,60.61
